Time;durP1;ratioP1;P1;durP2;ratioP2;P2;SDS_P1;SDS_P2;PMS_P1;PMS_P2;Temp;Humidity;BMP_temperature;BMP_pressure;BME280_temperature;BME280_humidity;BME280_pressure;Samples;Min_cycle;Max_cycle;Signal;HPM_P1;HPM_P2
2022/05/27 00:04:05;;;;;;;;;;;;;;;18.34;54.57;100585.59;10375598;28;19917;-62
2022/05/27 00:09:06;;;;;;;;;;;;;;;18.32;54.87;100580.38;10377460;28;19931;-62
2022/05/27 00:14:08;;;;;;;;;;;;;;;18.25;55.44;100576.66;10377990;28;19999;-63
2022/05/27 00:19:09;;;;;;;;;;;;;;;18.29;55.34;100569.94;10378415;28;20014;-63
2022/05/27 00:24:11;;;;;;;;;;;;;;;18.20;55.75;100568.25;10378303;28;19991;-63
2022/05/27 00:29:12;;;;;;;;;;;;;;;18.18;55.75;100565.72;10378933;28;19921;-61
2022/05/27 00:34:14;;;;;;;;;;;;;;;18.04;56.16;100552.06;10377023;28;19960;-63
2022/05/27 00:39:15;;;;;;;;;;;;;;;18.08;56.47;100548.03;10380011;28;19964;-61
2022/05/27 00:44:17;;;;;;;;;;;;;;;18.08;56.25;100537.25;10374016;28;19927;-63
2022/05/27 00:49:23;;;;;;;;;;;;;;;18.01;56.33;100543.31;10376853;28;19964;-62
2022/05/27 00:54:25;;;;;;;;;;;;;;;17.96;56.85;100550.19;10379250;28;19935;-63
2022/05/27 00:59:53;;;;;;;;;;;;;;;17.91;57.09;100547.13;10377525;28;19964;-63
2022/05/27 01:04:56;;;;;;;;;;;;;;;17.92;57.33;100541.56;10370133;28;20589;-63
2022/05/27 01:10:00;;;;;;;;;;;;;;;17.92;57.10;100532.66;10374476;28;20262;-63
2022/05/27 01:15:20;;;;;;;;;;;;;;;17.85;57.17;100532.47;10374559;28;19931;-62
2022/05/27 01:20:42;;;;;;;;;;;;;;;17.79;58.10;100523.19;10374110;28;19917;-62
2022/05/27 01:25:46;;;;;;;;;;;;;;;17.67;58.17;100517.25;10375787;28;19924;-63
2022/05/27 01:30:48;;;;;;;;;;;;;;;17.67;58.14;100529.88;10373227;28;19929;-63
2022/05/27 01:36:01;;;;;;;;;;;;;;;17.58;58.50;100534.38;10378380;28;20012;-63
2022/05/27 01:41:09;;;;;;;;;;;;;;;17.57;58.85;100540.75;10375888;28;20814;-63
2022/05/27 01:46:15;;;;;;;;;;;;;;;17.41;59.15;100524.56;10377384;28;20016;-62
2022/05/27 01:51:23;;;;;;;;;;;;;;;17.31;59.46;100522.84;10382977;28;19932;-63
2022/05/27 01:56:25;;;;;;;;;;;;;;;17.11;59.97;100530.31;10381361;28;20003;-63
2022/05/27 02:01:28;;;;;;;;;;;;;;;16.99;60.82;100519.97;10374573;28;20012;-62
2022/05/27 02:06:42;;;;;;;;;;;;;;;16.94;61.39;100525.81;10376626;28;19932;-63
2022/05/27 02:11:46;;;;;;;;;;;;;;;16.93;61.03;100532.19;10375070;28;19932;-62
2022/05/27 02:16:50;;;;;;;;;;;;;;;16.90;61.69;100528.00;10377218;28;19937;-63
2022/05/27 02:21:58;;;;;;;;;;;;;;;16.82;61.88;100519.81;10374137;28;20453;-64
2022/05/27 02:27:02;;;;;;;;;;;;;;;16.89;61.62;100510.16;10362864;28;20739;-63
2022/05/27 02:32:08;;;;;;;;;;;;;;;16.89;62.12;100509.31;10373923;28;19935;-63
2022/05/27 02:37:14;;;;;;;;;;;;;;;16.87;61.57;100509.47;10374208;28;20635;-64
2022/05/27 02:42:21;;;;;;;;;;;;;;;16.80;62.27;100511.09;10378049;28;20429;-63
2022/05/27 02:47:41;;;;;;;;;;;;;;;16.73;62.37;100505.47;10374019;28;19936;-63
2022/05/27 02:52:45;;;;;;;;;;;;;;;16.84;62.49;100501.69;10374305;28;19924;-62
2022/05/27 02:57:48;;;;;;;;;;;;;;;16.88;62.79;100507.63;10375222;28;19927;-62
2022/05/27 03:02:50;;;;;;;;;;;;;;;16.84;62.42;100507.06;10376298;28;19925;-62
2022/05/27 03:07:58;;;;;;;;;;;;;;;16.80;62.99;100494.97;10372481;28;20372;-62
2022/05/27 03:13:19;;;;;;;;;;;;;;;16.88;62.51;100497.72;10368057;28;19928;-62
2022/05/27 03:18:26;;;;;;;;;;;;;;;16.96;62.78;100489.72;10375549;28;19996;-63
2022/05/27 03:23:47;;;;;;;;;;;;;;;16.93;62.42;100497.25;10371129;28;19921;-63
2022/05/27 03:28:48;;;;;;;;;;;;;;;16.85;62.51;100491.78;10371869;28;19925;-61
2022/05/27 03:33:52;;;;;;;;;;;;;;;16.71;63.25;100488.69;10370170;28;20051;-61
2022/05/27 03:39:13;;;;;;;;;;;;;;;16.63;63.68;100493.16;10378528;28;20616;-61
2022/05/27 03:44:16;;;;;;;;;;;;;;;16.66;63.53;100498.22;10390812;28;20487;-62
2022/05/27 03:49:17;;;;;;;;;;;;;;;16.64;63.55;100501.06;10374402;28;20012;-63
2022/05/27 03:54:20;;;;;;;;;;;;;;;16.62;63.45;100497.69;10373193;28;19957;-62
2022/05/27 03:59:22;;;;;;;;;;;;;;;16.53;64.38;100510.22;10371596;28;20742;-63
2022/05/27 04:04:26;;;;;;;;;;;;;;;16.58;64.60;100502.53;10386117;28;20058;-64
2022/05/27 04:09:27;;;;;;;;;;;;;;;16.54;63.87;100490.41;10370466;28;19925;-63
2022/05/27 04:14:29;;;;;;;;;;;;;;;16.66;63.69;100508.97;10373273;28;19936;-63
2022/05/27 04:19:31;;;;;;;;;;;;;;;16.55;64.44;100505.53;10378541;28;19965;-62
2022/05/27 04:24:33;;;;;;;;;;;;;;;16.65;64.86;100507.25;10372353;28;19931;-63
2022/05/27 04:29:42;;;;;;;;;;;;;;;16.71;64.13;100507.50;10371002;28;19931;-63
2022/05/27 04:34:44;;;;;;;;;;;;;;;16.70;64.16;100510.34;10369947;28;19921;-63
2022/05/27 04:39:46;;;;;;;;;;;;;;;16.64;64.29;100502.91;10373275;28;20041;-63
2022/05/27 04:44:47;;;;;;;;;;;;;;;16.61;64.46;100507.56;10378527;28;19921;-63
2022/05/27 04:49:51;;;;;;;;;;;;;;;16.67;64.42;100490.00;10375048;28;20050;-63
2022/05/27 04:54:53;;;;;;;;;;;;;;;16.69;64.60;100497.91;10375900;28;19927;-63
2022/05/27 04:59:55;;;;;;;;;;;;;;;16.61;64.22;100483.41;10376135;28;19947;-63
2022/05/27 05:04:57;;;;;;;;;;;;;;;16.96;63.75;100499.59;10376086;28;19959;-63
2022/05/27 05:09:59;;;;;;;;;;;;;;;16.84;64.50;100474.81;10375436;28;20094;-63
2022/05/27 05:15:01;;;;;;;;;;;;;;;17.12;63.43;100488.09;10374000;28;20044;-63
2022/05/27 05:20:04;;;;;;;;;;;;;;;17.05;63.36;100503.19;10374194;28;20530;-64
2022/05/27 05:25:07;;;;;;;;;;;;;;;17.15;63.66;100498.53;10376867;28;19925;-64
2022/05/27 05:30:12;;;;;;;;;;;;;;;17.26;62.52;100500.97;10373143;28;20476;-63
2022/05/27 05:35:14;;;;;;;;;;;;;;;17.30;62.26;100513.06;10371642;28;19955;-64
2022/05/27 05:40:16;;;;;;;;;;;;;;;17.41;62.08;100503.84;10374332;28;19929;-63
2022/05/27 05:45:18;;;;;;;;;;;;;;;17.41;62.58;100500.34;10373619;28;20016;-63
2022/05/27 05:50:20;;;;;;;;;;;;;;;17.42;61.82;100493.97;10371027;28;20376;-63
2022/05/27 05:55:22;;;;;;;;;;;;;;;17.51;61.77;100502.91;10375312;28;20238;-63
2022/05/27 06:00:24;;;;;;;;;;;;;;;17.58;60.81;100507.47;10374983;28;20262;-63
2022/05/27 06:05:26;;;;;;;;;;;;;;;17.54;62.13;100506.09;10376196;28;20016;-64
2022/05/27 06:10:28;;;;;;;;;;;;;;;17.65;61.03;100513.03;10376384;28;19972;-62
2022/05/27 06:15:29;;;;;;;;;;;;;;;17.46;61.68;100516.84;10388498;28;20381;-64
2022/05/27 06:20:31;;;;;;;;;;;;;;;17.61;61.93;100512.53;10336111;28;19932;-64
2022/05/27 06:25:33;;;;;;;;;;;;;;;17.66;61.06;100518.25;10356051;28;20454;-63
2022/05/27 06:35:54;;;;;;;;;;;;;;;17.60;61.09;100508.13;10365965;28;19925;-63
2022/05/27 06:40:56;;;;;;;;;;;;;;;17.68;60.91;100515.41;10366385;28;20014;-63
2022/05/27 06:45:57;;;;;;;;;;;;;;;17.64;60.70;100520.28;10377010;28;20017;-63
2022/05/27 06:51:03;;;;;;;;;;;;;;;17.88;60.34;100521.34;10368121;28;19971;-63
2022/05/27 06:56:05;;;;;;;;;;;;;;;17.97;60.12;100530.31;10366453;28;19928;-63
2022/05/27 07:01:07;;;;;;;;;;;;;;;18.02;59.78;100534.19;10366014;28;19943;-62
2022/05/27 07:06:10;;;;;;;;;;;;;;;18.07;59.81;100522.09;10367423;28;20485;-62
2022/05/27 07:11:11;;;;;;;;;;;;;;;18.06;59.70;100537.41;10366701;28;19925;-63
2022/05/27 07:16:13;;;;;;;;;;;;;;;18.22;59.49;100533.88;10369367;28;19925;-62
2022/05/27 07:21:14;;;;;;;;;;;;;;;18.50;62.91;100528.19;10365377;28;20610;-63
2022/05/27 07:26:16;;;;;;;;;;;;;;;18.55;58.45;100550.94;10366341;28;19966;-62
2022/05/27 07:31:17;;;;;;;;;;;;;;;18.48;58.85;100538.28;10365890;28;20019;-62
2022/05/27 07:36:19;;;;;;;;;;;;;;;18.42;58.99;100536.25;10368091;28;19936;-65
2022/05/27 07:41:30;;;;;;;;;;;;;;;18.58;57.82;100538.97;10365554;28;20361;-62
2022/05/27 07:46:33;;;;;;;;;;;;;;;18.57;57.71;100534.59;10365686;28;19925;-63
2022/05/27 07:51:34;;;;;;;;;;;;;;;18.86;57.33;100541.34;10364572;28;19929;-62
2022/05/27 07:56:35;;;;;;;;;;;;;;;19.25;56.19;100540.56;10345725;28;20112;-63
2022/05/27 08:01:37;;;;;;;;;;;;;;;19.31;55.67;100545.28;10340905;28;20750;-63
2022/05/27 08:06:39;;;;;;;;;;;;;;;19.07;56.51;100533.53;10336998;28;20485;-62
2022/05/27 08:11:45;;;;;;;;;;;;;;;19.02;56.30;100532.34;10338837;28;19929;-64
2022/05/27 08:16:46;;;;;;;;;;;;;;;19.18;55.78;100534.19;10350899;28;19925;-64
2022/05/27 08:21:48;;;;;;;;;;;;;;;19.41;55.21;100540.53;10342731;28;19967;-64
2022/05/27 08:26:49;;;;;;;;;;;;;;;19.47;55.54;100538.13;10339608;28;19926;-65
2022/05/27 08:31:51;;;;;;;;;;;;;;;19.82;54.91;100538.69;10341722;28;20017;-62
2022/05/27 08:42:25;;;;;;;;;;;;;;;20.39;52.60;100534.78;10353368;28;19991;-60
2022/05/27 08:47:37;;;;;;;;;;;;;;;20.46;52.49;100536.56;10350050;28;20054;-63
2022/05/27 08:52:47;;;;;;;;;;;;;;;20.17;52.77;100539.97;10342448;28;20319;-63
2022/05/27 09:03:09;;;;;;;;;;;;;;;19.74;53.83;100548.47;10334814;28;20067;-61
2022/05/27 09:08:16;;;;;;;;;;;;;;;19.43;54.50;100556.53;10338691;28;21362;-62
2022/05/27 09:13:19;;;;;;;;;;;;;;;19.47;54.99;100567.81;10337284;28;20007;-62
2022/05/27 09:18:35;;;;;;;;;;;;;;;19.52;54.81;100557.34;10338330;28;19925;-61
2022/05/27 09:23:47;;;;;;;;;;;;;;;19.41;55.62;100548.63;10335730;28;19925;-64
2022/05/27 09:29:07;;;;;;;;;;;;;;;19.47;55.18;100554.31;10337520;28;20078;-62
2022/05/27 09:34:10;;;;;;;;;;;;;;;19.51;55.22;100555.66;10334099;28;20431;-62
2022/05/27 09:39:13;;;;;;;;;;;;;;;20.12;53.59;100547.78;10332415;28;19925;-64
2022/05/27 09:44:30;;;;;;;;;;;;;;;20.68;51.46;100544.84;10334814;28;19932;-63
2022/05/27 09:49:32;;;;;;;;;;;;;;;20.96;51.16;100552.38;10329474;28;19929;-64
2022/05/27 09:54:43;;;;;;;;;;;;;;;20.52;51.77;100556.59;10334672;28;19925;-63
2022/05/27 09:59:46;;;;;;;;;;;;;;;20.14;52.56;100541.16;10327554;28;20783;-63
2022/05/27 10:05:00;;;;;;;;;;;;;;;20.05;54.02;100544.94;10334549;28;19929;-62
2022/05/27 10:10:16;;;;;;;;;;;;;;;20.03;54.80;100548.88;10333412;28;19928;-63
2022/05/27 10:15:29;;;;;;;;;;;;;;;19.83;57.74;100562.81;10336914;28;19924;-61
2022/05/27 10:20:33;;;;;;;;;;;;;;;19.65;60.55;100573.84;10336030;28;19960;-63
2022/05/27 10:25:38;;;;;;;;;;;;;;;19.32;64.20;100562.31;10334574;28;19929;-61
2022/05/27 10:30:51;;;;;;;;;;;;;;;19.07;65.96;100565.91;10331287;28;19933;-61
2022/05/27 10:35:53;;;;;;;;;;;;;;;19.36;67.00;100564.47;10330087;28;19935;-62
2022/05/27 10:41:05;;;;;;;;;;;;;;;19.63;65.52;100556.97;10334200;28;19929;-63
2022/05/27 10:46:09;;;;;;;;;;;;;;;19.56;66.08;100546.03;10328977;28;19932;-63
2022/05/27 10:51:11;;;;;;;;;;;;;;;20.00;64.55;100533.03;10329141;28;20864;-66
2022/05/27 10:56:32;;;;;;;;;;;;;;;20.95;63.27;100529.03;10323884;28;19929;-63
2022/05/27 11:07:13;;;;;;;;;;;;;;;20.82;58.41;100529.66;10328814;28;19929;-63
2022/05/27 11:18:25;;;;;;;;;;;;;;;20.55;60.02;100518.41;10288750;28;19939;-64
2022/05/27 11:23:56;;;;;;;;;;;;;;;21.09;57.15;100517.41;10334634;28;19925;-64
2022/05/27 11:28:57;;;;;;;;;;;;;;;21.43;56.35;100517.84;10320143;28;19925;-64
2022/05/27 11:34:22;;;;;;;;;;;;;;;21.52;54.72;100517.56;10331685;28;19924;-64
2022/05/27 11:39:29;;;;;;;;;;;;;;;20.70;58.18;100540.09;10335682;28;20442;-63
2022/05/27 11:44:30;;;;;;;;;;;;;;;19.54;60.90;100534.56;10330437;28;19940;-62
2022/05/27 11:49:39;;;;;;;;;;;;;;;19.16;61.51;100552.41;10333542;28;19925;-61
2022/05/27 11:54:46;;;;;;;;;;;;;;;19.11;61.68;100550.25;10339573;28;19956;-63
2022/05/27 11:59:51;;;;;;;;;;;;;;;18.79;62.37;100529.50;10354113;28;19951;-67
2022/05/27 12:04:55;;;;;;;;;;;;;;;18.69;65.06;100562.03;10340826;28;20376;-62
2022/05/27 12:10:18;;;;;;;;;;;;;;;18.89;64.46;100552.63;10338026;28;19936;-63
2022/05/27 12:15:43;;;;;;;;;;;;;;;18.76;62.69;100562.22;10336332;28;20585;-64
2022/05/27 12:20:45;;;;;;;;;;;;;;;18.82;61.05;100572.31;10334994;28;19985;-63
2022/05/27 12:25:49;;;;;;;;;;;;;;;19.04;59.74;100565.41;10337409;28;20491;-63
2022/05/27 12:30:51;;;;;;;;;;;;;;;19.35;57.88;100557.41;10333556;28;20295;-63
2022/05/27 12:36:11;;;;;;;;;;;;;;;20.57;55.30;100545.28;10341124;28;19929;-63
2022/05/27 12:41:16;;;;;;;;;;;;;;;21.39;51.56;100528.19;10334478;28;20288;-61
2022/05/27 12:46:26;;;;;;;;;;;;;;;21.37;50.09;100520.25;10336283;28;19936;-62
2022/05/27 12:51:31;;;;;;;;;;;;;;;21.75;49.69;100511.19;10335544;28;19936;-62
2022/05/27 13:01:53;;;;;;;;;;;;;;;22.67;46.61;100520.47;10335868;28;21144;-63
2022/05/27 13:07:05;;;;;;;;;;;;;;;22.59;44.60;100513.31;10352232;28;20950;-62
2022/05/27 13:12:07;;;;;;;;;;;;;;;22.91;43.83;100502.88;10337745;28;20016;-63
2022/05/27 13:17:08;;;;;;;;;;;;;;;22.94;41.58;100488.91;10336716;28;19932;-64
2022/05/27 13:22:28;;;;;;;;;;;;;;;23.08;39.51;100478.13;10334803;28;19921;-62
2022/05/27 13:27:32;;;;;;;;;;;;;;;23.11;39.33;100466.91;10335869;28;19925;-63
2022/05/27 13:32:47;;;;;;;;;;;;;;;22.76;40.68;100464.19;10337277;28;20002;-62
2022/05/27 13:37:50;;;;;;;;;;;;;;;;;;10334700;28;19929;-62
2022/05/27 13:42:54;;;;;;;;;;;;;;;22.65;41.39;100467.44;10334553;28;22339;-62
2022/05/27 13:48:00;;;;;;;;;;;;;;;22.48;42.53;100461.47;10336362;28;19930;-63
2022/05/27 13:53:21;;;;;;;;;;;;;;;22.35;43.24;100444.06;10345764;28;19935;-64
2022/05/27 13:58:26;;;;;;;;;;;;;;;22.36;42.58;100448.44;10355551;28;20450;-63
2022/05/27 14:03:31;;;;;;;;;;;;;;;22.23;41.00;100443.72;10341822;28;19925;-62
2022/05/27 14:08:42;;;;;;;;;;;;;;;22.07;40.62;100433.16;10337182;28;20790;-63
2022/05/27 14:13:49;;;;;;;;;;;;;;;22.16;39.99;100421.13;10337493;28;20016;-65
2022/05/27 14:18:52;;;;;;;;;;;;;;;22.35;39.78;100424.22;10335307;28;20039;-63
2022/05/27 14:23:54;;;;;;;;;;;;;;;22.31;38.59;100406.63;10336933;28;20011;-63
2022/05/27 14:28:55;;;;;;;;;;;;;;;22.33;37.88;100420.88;10337011;28;20130;-64
2022/05/27 14:34:00;;;;;;;;;;;;;;;22.24;38.32;100414.72;10337403;28;19924;-64
2022/05/27 14:39:03;;;;;;;;;;;;;;;22.13;38.44;100407.97;10336081;28;19940;-64
2022/05/27 14:44:05;;;;;;;;;;;;;;;22.17;37.98;100422.81;10337779;28;19925;-63
2022/05/27 14:49:27;;;;;;;;;;;;;;;22.22;38.45;100414.91;10337444;28;19933;-62
2022/05/27 14:54:33;;;;;;;;;;;;;;;22.35;37.95;100414.22;10337566;28;20631;-63
2022/05/27 14:59:35;;;;;;;;;;;;;;;22.08;37.42;100407.69;10338411;28;20261;-64
2022/05/27 15:04:36;;;;;;;;;;;;;;;22.12;37.37;100414.41;10334179;28;19932;-63
2022/05/27 15:09:38;;;;;;;;;;;;;;;21.98;37.59;100410.75;10335765;28;21422;-62
2022/05/27 15:14:42;;;;;;;;;;;;;;;21.88;37.66;100405.66;10335310;28;19931;-63
2022/05/27 15:19:45;;;;;;;;;;;;;;;22.05;38.10;100386.41;10331490;28;20402;-62
2022/05/27 15:24:52;;;;;;;;;;;;;;;21.99;37.19;100392.63;10336690;28;19931;-60
2022/05/27 15:35:25;;;;;;;;;;;;;;;21.88;35.28;100380.44;10331958;28;19951;-62
2022/05/27 15:40:28;;;;;;;;;;;;;;;21.93;32.01;100377.13;10348442;28;20427;-62
2022/05/27 15:45:29;;;;;;;;;;;;;;;22.09;33.57;100367.91;10337632;28;19929;-62
2022/05/27 15:50:30;;;;;;;;;;;;;;;22.30;33.54;100369.72;10335002;28;19931;-62
2022/05/27 15:55:32;;;;;;;;;;;;;;;22.24;33.88;100374.06;10334789;28;19982;-61
2022/05/27 16:00:33;;;;;;;;;;;;;;;22.32;34.17;100375.81;10323498;28;20019;-65
2022/05/27 16:05:35;;;;;;;;;;;;;;;21.87;32.25;100371.47;10328303;28;20337;-62
2022/05/27 16:10:36;;;;;;;;;;;;;;;21.87;34.32;100370.63;10332018;28;20462;-63
2022/05/27 16:15:38;;;;;;;;;;;;;;;21.81;32.84;100372.25;10334578;28;19929;-63
2022/05/27 16:20:41;;;;;;;;;;;;;;;21.98;33.97;100369.25;10324725;28;19929;-62
2022/05/27 16:25:43;;;;;;;;;;;;;;;21.82;33.01;100376.63;10349347;28;20020;-62
2022/05/27 16:30:45;;;;;;;;;;;;;;;21.86;32.74;100377.94;10339547;28;19924;-62
2022/05/27 16:35:48;;;;;;;;;;;;;;;21.76;32.25;100377.41;10336025;28;20367;-62
2022/05/27 16:40:50;;;;;;;;;;;;;;;21.67;33.55;100379.41;10338070;28;20265;-62
2022/05/27 16:45:52;;;;;;;;;;;;;;;21.63;33.75;100377.28;10339265;28;20329;-62
2022/05/27 16:50:55;;;;;;;;;;;;;;;21.57;34.31;100394.31;10338980;28;20099;-62
2022/05/27 16:55:57;;;;;;;;;;;;;;;21.58;35.21;100401.41;10334876;28;20726;-63
2022/05/27 17:00:58;;;;;;;;;;;;;;;21.50;35.22;100396.94;10338562;28;19924;-63
2022/05/27 17:06:00;;;;;;;;;;;;;;;21.23;35.62;100412.00;10342950;28;20307;-63
2022/05/27 17:11:01;;;;;;;;;;;;;;;21.08;35.36;100398.53;10342837;28;20079;-64
2022/05/27 17:16:04;;;;;;;;;;;;;;;20.99;35.73;100412.13;10342025;28;19928;-64
2022/05/27 17:21:06;;;;;;;;;;;;;;;20.90;35.96;100420.56;10357100;28;20816;-63
2022/05/27 17:26:13;;;;;;;;;;;;;;;20.83;35.91;100410.44;10340429;28;19921;-65
2022/05/27 17:31:15;;;;;;;;;;;;;;;20.80;35.80;100427.06;10354996;28;19932;-61
2022/05/27 17:36:17;;;;;;;;;;;;;;;20.48;36.00;100423.66;10359715;28;21450;-61
2022/05/27 17:41:18;;;;;;;;;;;;;;;20.20;36.09;100398.25;10348986;28;19936;-61
2022/05/27 17:46:20;;;;;;;;;;;;;;;20.43;37.04;100417.97;10336560;28;19925;-61
2022/05/27 17:51:23;;;;;;;;;;;;;;;20.26;35.85;100414.56;10333886;28;19929;-60
2022/05/27 17:56:24;;;;;;;;;;;;;;;20.05;36.32;100423.34;10336446;28;20630;-62
2022/05/27 18:01:26;;;;;;;;;;;;;;;20.06;36.12;100419.66;10333478;28;19925;-61
2022/05/27 18:06:28;;;;;;;;;;;;;;;19.96;36.38;100436.09;10329700;28;19928;-62
2022/05/27 18:11:30;;;;;;;;;;;;;;;19.83;36.02;100435.03;10347102;28;20759;-61
2022/05/27 18:16:31;;;;;;;;;;;;;;;19.55;36.26;100439.03;10333498;28;19928;-62
2022/05/27 18:21:33;;;;;;;;;;;;;;;19.36;36.09;100451.13;10332451;28;19944;-61
2022/05/27 18:26:34;;;;;;;;;;;;;;;19.33;36.23;100451.47;10330226;28;19928;-63
2022/05/27 18:31:35;;;;;;;;;;;;;;;19.25;36.12;100451.53;10333360;28;20735;-62
2022/05/27 18:36:37;;;;;;;;;;;;;;;19.17;36.83;100463.19;10335376;28;20779;-61
2022/05/27 18:41:39;;;;;;;;;;;;;;;19.08;36.49;100475.88;10332579;28;19929;-61
2022/05/27 18:46:41;;;;;;;;;;;;;;;18.79;36.79;100478.28;10335693;28;19935;-62
2022/05/27 18:51:43;;;;;;;;;;;;;;;18.72;37.52;100480.84;10334115;28;19931;-63
2022/05/27 18:56:44;;;;;;;;;;;;;;;18.77;36.68;100486.53;10337884;28;19944;-62
2022/05/27 19:01:45;;;;;;;;;;;;;;;18.51;37.45;100495.69;10332161;28;19968;-62
2022/05/27 19:06:47;;;;;;;;;;;;;;;18.50;38.11;100503.94;10332713;28;19944;-61
2022/05/27 19:11:48;;;;;;;;;;;;;;;18.51;38.49;100502.91;10335116;28;19925;-61
2022/05/27 19:16:50;;;;;;;;;;;;;;;18.59;39.17;100511.00;10333610;28;19928;-62
2022/05/27 19:21:51;;;;;;;;;;;;;;;18.50;38.18;100520.94;10333573;28;20140;-61
2022/05/27 19:26:52;;;;;;;;;;;;;;;18.36;39.21;100513.53;10330783;28;19921;-59
2022/05/27 19:31:54;;;;;;;;;;;;;;;18.44;38.93;100520.78;10332884;28;20044;-61
2022/05/27 19:36:55;;;;;;;;;;;;;;;18.11;38.03;100534.22;10337038;28;19929;-61
2022/05/27 19:41:57;;;;;;;;;;;;;;;18.06;38.83;100539.25;10340187;28;20034;-64
2022/05/27 19:46:58;;;;;;;;;;;;;;;18.08;39.08;100545.34;10355154;28;19932;-62
2022/05/27 19:52:03;;;;;;;;;;;;;;;18.15;39.04;100557.09;10340960;28;19925;-64
2022/05/27 20:07:47;;;;;;;;;;;;;;;17.93;37.54;100564.81;10336169;28;20465;-63
2022/05/27 20:12:48;;;;;;;;;;;;;;;17.73;38.80;100566.91;10343739;28;19925;-63
2022/05/27 20:17:50;;;;;;;;;;;;;;;17.70;39.32;100571.75;10344644;28;20079;-62
2022/05/27 20:22:52;;;;;;;;;;;;;;;17.66;39.25;100573.94;10345985;28;19931;-64
2022/05/27 20:27:54;;;;;;;;;;;;;;;17.35;39.12;100576.31;10339836;28;19994;-62
2022/05/27 20:32:55;;;;;;;;;;;;;;;17.37;39.17;100579.69;10343014;28;19925;-62
2022/05/27 20:37:57;;;;;;;;;;;;;;;17.35;39.52;100590.59;10346298;28;19929;-61
2022/05/27 20:42:58;;;;;;;;;;;;;;;17.31;39.38;100582.03;10337409;28;20327;-64
2022/05/27 20:47:59;;;;;;;;;;;;;;;17.41;39.21;100586.44;10341623;28;20639;-64
2022/05/27 20:53:01;;;;;;;;;;;;;;;17.33;38.98;100591.78;10355427;28;19925;-63
2022/05/27 20:58:02;;;;;;;;;;;;;;;17.23;39.17;100587.34;10343405;28;21143;-65
2022/05/27 21:03:03;;;;;;;;;;;;;;;16.94;39.59;100593.88;10342759;28;19935;-63
2022/05/27 21:08:05;;;;;;;;;;;;;;;17.03;40.06;100600.16;10344711;28;20063;-63
2022/05/27 21:13:06;;;;;;;;;;;;;;;17.05;39.78;100606.22;10348227;28;19928;-64
2022/05/27 21:18:08;;;;;;;;;;;;;;;16.94;40.14;100610.00;10363554;28;19921;-63
2022/05/27 21:23:09;;;;;;;;;;;;;;;16.90;40.19;100629.31;10376272;28;19925;-64
2022/05/27 21:28:10;;;;;;;;;;;;;;;16.85;40.50;100621.66;10375863;28;19927;-62
2022/05/27 21:33:12;;;;;;;;;;;;;;;16.75;41.01;100632.53;10371769;28;19925;-63
2022/05/27 21:38:13;;;;;;;;;;;;;;;16.76;40.88;100625.28;10374352;28;19931;-63
2022/05/27 21:43:30;;;;;;;;;;;;;;;16.66;41.45;100633.44;10371990;28;20059;-65
2022/05/27 21:48:32;;;;;;;;;;;;;;;16.61;42.01;100631.19;10374083;28;19932;-63
2022/05/27 21:53:34;;;;;;;;;;;;;;;16.26;41.82;100635.56;10374239;28;19925;-63
2022/05/27 21:58:36;;;;;;;;;;;;;;;15.67;43.31;100601.94;10371399;28;20008;-63
2022/05/27 22:03:37;;;;;;;;;;;;;;;15.74;42.53;100628.03;10373328;28;20044;-64
2022/05/27 22:08:40;;;;;;;;;;;;;;;15.71;42.79;100638.22;10372807;28;19925;-63
2022/05/27 22:13:43;;;;;;;;;;;;;;;15.83;42.57;100629.00;10369120;28;19937;-63
2022/05/27 22:18:44;;;;;;;;;;;;;;;15.48;42.04;100630.53;10367294;28;20017;-64
2022/05/27 22:23:46;;;;;;;;;;;;;;;15.45;42.33;100633.53;10367572;28;20036;-63
2022/05/27 22:28:47;;;;;;;;;;;;;;;15.29;42.46;100625.25;10370050;28;20217;-64
2022/05/27 22:33:48;;;;;;;;;;;;;;;15.26;43.24;100629.03;10373014;28;19926;-63
2022/05/27 22:38:50;;;;;;;;;;;;;;;15.17;42.82;100624.56;10373134;28;19956;-64
2022/05/27 22:43:52;;;;;;;;;;;;;;;15.16;42.58;100622.84;10374363;28;19928;-63
2022/05/27 22:48:54;;;;;;;;;;;;;;;15.28;42.65;100612.81;10372168;28;19939;-63
2022/05/27 22:53:55;;;;;;;;;;;;;;;15.20;42.56;100609.00;10371751;28;19929;-63
2022/05/27 22:58:58;;;;;;;;;;;;;;;15.32;42.58;100611.53;10371017;28;20019;-63
2022/05/27 23:03:59;;;;;;;;;;;;;;;15.34;42.92;100604.19;10372268;28;20014;-64
2022/05/27 23:09:00;;;;;;;;;;;;;;;15.02;42.42;100606.22;10370602;28;19925;-64
2022/05/27 23:19:24;;;;;;;;;;;;;;;15.03;43.70;100623.19;10371190;28;20423;-63
2022/05/27 23:24:25;;;;;;;;;;;;;;;14.93;43.68;100619.66;10369759;28;20023;-64
2022/05/27 23:29:27;;;;;;;;;;;;;;;14.96;43.92;100627.41;10370473;28;19925;-62
2022/05/27 23:34:28;;;;;;;;;;;;;;;15.02;43.31;100626.84;10371663;28;19935;-62
2022/05/27 23:39:29;;;;;;;;;;;;;;;14.91;43.22;100614.44;10373290;28;19985;-65
2022/05/27 23:44:31;;;;;;;;;;;;;;;14.97;43.63;100619.22;10379513;28;20007;-61
2022/05/27 23:49:32;;;;;;;;;;;;;;;15.05;43.88;100621.19;10379239;28;20024;-63
2022/05/27 23:54:34;;;;;;;;;;;;;;;14.99;42.99;100621.75;10371375;28;19936;-62
2022/05/27 23:59:35;;;;;;;;;;;;;;;14.98;43.03;100620.06;10368679;28;20410;-63
